Time;durP1;ratioP1;P1;durP2;ratioP2;P2;SDS_P1;SDS_P2;PMS_P1;PMS_P2;Temp;Humidity;BMP_temperature;BMP_pressure;BME280_temperature;BME280_humidity;BME280_pressure;Samples;Min_cycle;Max_cycle;Signal;HPM_P1;HPM_P2
2023/09/26 00:01:36;;;;;;;0.90;0.90;;;15.10;99.90;;;;;;7396791;19;20141;-87
2023/09/26 00:04:02;;;;;;;0.90;0.80;;;14.90;99.90;;;;;;7395998;19;20154;-88
2023/09/26 00:06:29;;;;;;;1.38;0.95;;;14.90;99.90;;;;;;7391979;19;20153;-88
2023/09/26 00:08:55;;;;;;;1.45;1.13;;;15.10;99.90;;;;;;7391473;19;20494;-89
2023/09/26 00:11:22;;;;;;;1.60;1.00;;;15.00;99.90;;;;;;7394591;19;20149;-88
2023/09/26 00:13:50;;;;;;;1.10;1.00;;;15.00;99.90;;;;;;7390834;19;20154;-87
2023/09/26 00:16:16;;;;;;;1.15;1.05;;;15.00;99.90;;;;;;7393025;19;20187;-89
2023/09/26 00:18:42;;;;;;;1.10;1.00;;;14.90;99.90;;;;;;7393546;19;20169;-88
2023/09/26 00:21:10;;;;;;;1.10;1.00;;;14.90;99.90;;;;;;7394102;19;20603;-86
2023/09/26 00:23:36;;;;;;;1.35;0.90;;;14.90;99.90;;;;;;7392944;19;20161;-87
2023/09/26 00:26:04;;;;;;;1.08;0.90;;;15.00;99.90;;;;;;7394243;19;20143;-89
2023/09/26 00:28:30;;;;;;;1.10;1.00;;;14.90;99.90;;;;;;7390948;19;20154;-88
2023/09/26 00:30:56;;;;;;;1.10;0.95;;;15.00;99.90;;;;;;7393428;19;20158;-90
2023/09/26 00:33:23;;;;;;;1.50;0.88;;;15.00;99.90;;;;;;7393775;19;20170;-88
2023/09/26 00:35:49;;;;;;;1.63;1.17;;;14.90;99.90;;;;;;7392533;19;20262;-90
2023/09/26 00:38:14;;;;;;;2.15;1.25;;;15.10;99.90;;;;;;7393229;19;20926;-90
2023/09/26 00:40:41;;;;;;;2.13;0.98;;;15.00;99.90;;;;;;7393698;19;20134;-88
2023/09/26 00:43:07;;;;;;;1.10;0.90;;;14.80;99.90;;;;;;7391956;19;20143;-89
2023/09/26 00:45:34;;;;;;;1.25;1.10;;;15.00;99.90;;;;;;7392966;19;20147;-89
2023/09/26 00:47:59;;;;;;;1.65;1.10;;;15.00;99.90;;;;;;7391898;19;20143;-89
2023/09/26 00:50:25;;;;;;;1.10;0.82;;;14.70;99.90;;;;;;7391915;19;20134;-88
2023/09/26 00:52:53;;;;;;;0.80;0.77;;;14.70;99.90;;;;;;7391375;19;20172;-88
2023/09/26 00:55:22;;;;;;;0.95;0.93;;;14.60;99.90;;;;;;7392139;19;20146;-88
2023/09/26 00:57:48;;;;;;;0.85;0.85;;;14.70;99.90;;;;;;7392748;19;20143;-88
2023/09/26 01:00:19;;;;;;;2.55;1.20;;;14.50;99.90;;;;;;7393799;19;20645;-88
2023/09/26 01:02:44;;;;;;;1.23;0.95;;;14.50;99.90;;;;;;7391913;19;20177;-87
2023/09/26 01:05:10;;;;;;;1.25;1.08;;;14.40;99.90;;;;;;7391284;19;20171;-88
2023/09/26 01:07:37;;;;;;;0.75;0.75;;;14.40;99.90;;;;;;7391510;19;20251;-89
2023/09/26 01:10:03;;;;;;;1.10;1.00;;;14.40;99.90;;;;;;7393155;19;20173;-88
2023/09/26 01:12:29;;;;;;;0.90;0.90;;;14.40;99.90;;;;;;7390743;19;20142;-87
2023/09/26 01:14:55;;;;;;;1.10;0.95;;;14.40;99.90;;;;;;7391526;19;20477;-87
2023/09/26 01:17:21;;;;;;;1.30;1.20;;;14.30;99.90;;;;;;7388281;19;20154;-85
2023/09/26 01:19:47;;;;;;;1.20;1.02;;;14.20;99.90;;;;;;7392034;19;20146;-87
2023/09/26 01:22:16;;;;;;;1.08;1.00;;;14.10;99.90;;;;;;7392032;19;20130;-87
2023/09/26 01:24:43;;;;;;;1.40;1.05;;;14.20;99.90;;;;;;7391714;19;20151;-87
2023/09/26 01:27:09;;;;;;;0.88;0.88;;;14.30;99.90;;;;;;7398095;19;20143;-87
2023/09/26 01:29:35;;;;;;;1.25;1.10;;;14.40;99.90;;;;;;7395611;19;20170;-87
2023/09/26 01:32:01;;;;;;;1.23;1.13;;;14.20;99.90;;;;;;7396656;19;20139;-88
2023/09/26 01:34:27;;;;;;;1.42;0.90;;;14.30;99.90;;;;;;7397323;19;20138;-88
2023/09/26 01:36:53;;;;;;;1.48;1.02;;;14.50;99.90;;;;;;7395817;19;20787;-88
2023/09/26 01:39:20;;;;;;;2.22;1.17;;;14.90;99.90;;;;;;7396647;19;20131;-87
2023/09/26 01:41:46;;;;;;;1.40;1.25;;;14.90;99.90;;;;;;7396916;19;20162;-88
2023/09/26 01:44:12;;;;;;;1.55;1.23;;;14.70;99.90;;;;;;7397433;19;20138;-90
2023/09/26 01:46:39;;;;;;;1.40;1.15;;;14.50;99.90;;;;;;7397958;19;20218;-90
2023/09/26 01:49:05;;;;;;;2.05;1.10;;;14.70;99.90;;;;;;7396709;19;20146;-89
2023/09/26 01:51:31;;;;;;;1.02;0.90;;;14.70;99.90;;;;;;7397617;19;20138;-88
2023/09/26 01:53:56;;;;;;;1.65;1.25;;;14.50;99.90;;;;;;7398114;19;20156;-88
2023/09/26 01:56:22;;;;;;;1.58;0.98;;;14.30;99.90;;;;;;7397272;19;20159;-88
2023/09/26 01:58:48;;;;;;;1.08;0.82;;;14.40;99.90;;;;;;7395496;19;20131;-90
2023/09/26 02:01:14;;;;;;;1.77;1.20;;;14.50;99.90;;;;;;7396427;19;20269;-88
2023/09/26 02:03:41;;;;;;;2.05;1.38;;;14.60;99.90;;;;;;7395670;19;20155;-88
2023/09/26 02:06:06;;;;;;;1.10;1.00;;;14.40;99.90;;;;;;7396818;19;20192;-89
2023/09/26 02:08:34;;;;;;;1.00;0.98;;;14.30;99.90;;;;;;7395820;19;20134;-87
2023/09/26 02:11:00;;;;;;;1.88;1.00;;;14.40;99.90;;;;;;7396510;19;20162;-87
2023/09/26 02:13:26;;;;;;;1.67;1.10;;;14.20;99.90;;;;;;7396229;19;20151;-88
2023/09/26 02:15:51;;;;;;;0.95;0.80;;;14.30;99.90;;;;;;7396696;19;20138;-88
2023/09/26 02:18:17;;;;;;;0.98;0.80;;;14.20;99.90;;;;;;7395639;19;20611;-87
2023/09/26 02:20:43;;;;;;;1.23;0.90;;;14.40;99.90;;;;;;7395678;19;20134;-88
2023/09/26 02:23:09;;;;;;;1.00;0.90;;;14.30;99.90;;;;;;7398229;19;20123;-88
2023/09/26 02:25:35;;;;;;;1.05;0.90;;;14.20;99.90;;;;;;7397008;19;20139;-88
2023/09/26 02:28:00;;;;;;;1.23;0.77;;;14.50;99.90;;;;;;7395480;19;20127;-88
2023/09/26 02:30:31;;;;;;;1.83;1.20;;;14.20;99.90;;;;;;7396760;19;20242;-88
2023/09/26 02:32:56;;;;;;;1.10;1.00;;;14.20;99.90;;;;;;7395359;19;20143;-89
2023/09/26 02:35:22;;;;;;;1.15;0.93;;;14.20;99.90;;;;;;7396938;19;20134;-88
2023/09/26 02:37:48;;;;;;;1.33;1.23;;;14.30;99.90;;;;;;7394563;19;20138;-87
2023/09/26 02:40:14;;;;;;;1.40;1.20;;;14.40;99.90;;;;;;7395740;19;20440;-88
2023/09/26 02:42:43;;;;;;;1.20;1.10;;;14.40;99.90;;;;;;7396120;19;20134;-88
2023/09/26 02:45:10;;;;;;;1.60;1.48;;;14.30;99.90;;;;;;7393602;19;20527;-86
2023/09/26 02:47:36;;;;;;;1.08;1.00;;;14.20;99.90;;;;;;7398157;19;20190;-88
2023/09/26 02:50:02;;;;;;;1.60;1.20;;;14.10;99.90;;;;;;7394347;19;20157;-88
2023/09/26 02:52:31;;;;;;;1.48;1.38;;;14.30;99.90;;;;;;7393672;19;20138;-86
2023/09/26 02:54:56;;;;;;;1.38;1.23;;;14.30;99.90;;;;;;7395061;19;20209;-88
2023/09/26 02:57:22;;;;;;;2.05;1.20;;;14.20;99.90;;;;;;7395111;19;20263;-87
2023/09/26 02:59:48;;;;;;;1.10;0.98;;;14.10;99.90;;;;;;7395035;19;20203;-87
2023/09/26 03:02:14;;;;;;;1.55;1.02;;;14.10;99.90;;;;;;7396337;19;20138;-87
2023/09/26 03:04:39;;;;;;;1.23;1.10;;;14.20;99.90;;;;;;7394674;19;20626;-88
2023/09/26 03:07:05;;;;;;;1.77;1.15;;;14.20;99.90;;;;;;7395714;19;20145;-88
2023/09/26 03:09:31;;;;;;;1.88;1.10;;;14.10;99.90;;;;;;7392339;19;20149;-88
2023/09/26 03:11:57;;;;;;;1.55;1.45;;;14.00;99.90;;;;;;7395936;19;20517;-87
2023/09/26 03:14:23;;;;;;;1.05;0.98;;;13.70;99.90;;;;;;7394415;19;20145;-87
2023/09/26 03:16:49;;;;;;;1.25;1.00;;;13.60;99.90;;;;;;7396302;19;20130;-87
2023/09/26 03:19:23;;;;;;;1.40;1.27;;;13.70;99.90;;;;;;7395402;19;20165;-87
2023/09/26 03:21:50;;;;;;;1.25;1.10;;;13.80;99.90;;;;;;7394374;19;20521;-86
2023/09/26 03:24:19;;;;;;;1.20;0.85;;;13.80;99.90;;;;;;7395564;19;20158;-85
2023/09/26 03:26:45;;;;;;;1.02;0.93;;;13.80;99.90;;;;;;7395532;19;20149;-87
2023/09/26 03:29:11;;;;;;;1.00;0.90;;;13.90;99.90;;;;;;7393974;19;20126;-88
2023/09/26 03:31:41;;;;;;;1.35;1.08;;;14.40;99.90;;;;;;7394546;19;20134;-88
2023/09/26 03:34:09;;;;;;;1.20;1.05;;;14.50;99.90;;;;;;7395500;19;20152;-88
2023/09/26 03:36:36;;;;;;;1.05;0.95;;;14.50;99.90;;;;;;7394614;19;20889;-89
2023/09/26 03:39:03;;;;;;;1.15;1.00;;;14.40;99.90;;;;;;7398153;19;20563;-88
2023/09/26 03:41:30;;;;;;;1.58;1.23;;;14.50;99.90;;;;;;7395974;19;20472;-88
2023/09/26 03:43:56;;;;;;;1.08;0.95;;;14.20;99.90;;;;;;7396048;19;20138;-88
2023/09/26 03:46:21;;;;;;;1.55;1.42;;;14.00;99.90;;;;;;7394580;19;20469;-87
2023/09/26 03:48:49;;;;;;;1.27;1.17;;;14.20;99.90;;;;;;7388312;19;20255;-87
2023/09/26 03:51:15;;;;;;;1.67;1.25;;;13.80;99.90;;;;;;7393224;19;20154;-87
2023/09/26 03:53:42;;;;;;;1.55;1.00;;;13.70;99.90;;;;;;7394723;19;20146;-86
2023/09/26 03:56:09;;;;;;;1.45;1.35;;;13.60;99.90;;;;;;7394286;19;20154;-85
2023/09/26 03:58:36;;;;;;;1.40;1.30;;;13.50;99.90;;;;;;7390514;19;20154;-85
2023/09/26 04:01:13;;;;;;;1.63;1.52;;;13.70;99.90;;;;;;7394406;19;20591;-84
2023/09/26 04:03:41;;;;;;;1.23;1.13;;;13.60;99.90;;;;;;7392302;19;20134;-85
2023/09/26 04:06:07;;;;;;;2.75;1.40;;;13.50;99.90;;;;;;7393666;19;20201;-84
2023/09/26 04:08:33;;;;;;;1.70;1.30;;;13.70;99.90;;;;;;7393032;19;20143;-87
2023/09/26 04:10:59;;;;;;;2.05;1.40;;;13.60;99.90;;;;;;7397589;19;20145;-85
2023/09/26 04:13:25;;;;;;;1.23;1.13;;;13.80;99.90;;;;;;7397743;19;20157;-84
2023/09/26 04:15:52;;;;;;;1.60;1.40;;;14.00;99.90;;;;;;7398742;19;20147;-85
2023/09/26 04:18:18;;;;;;;1.50;1.30;;;14.10;99.90;;;;;;7398439;19;20142;-85
2023/09/26 04:20:44;;;;;;;1.55;1.40;;;14.40;99.90;;;;;;7396137;19;20147;-86
2023/09/26 04:23:10;;;;;;;1.30;1.17;;;13.80;99.90;;;;;;7392925;19;20159;-86
2023/09/26 04:25:36;;;;;;;1.73;1.50;;;13.70;99.90;;;;;;7393585;19;20143;-85
2023/09/26 04:28:03;;;;;;;1.92;1.35;;;13.50;99.90;;;;;;7391604;19;20566;-84
2023/09/26 04:30:32;;;;;;;1.42;1.00;;;13.80;99.90;;;;;;7393634;19;20144;-84
2023/09/26 04:32:58;;;;;;;1.88;1.50;;;13.90;99.90;;;;;;7394176;19;20135;-84
2023/09/26 04:35:24;;;;;;;1.48;1.33;;;13.70;99.90;;;;;;7392941;19;20614;-83
2023/09/26 04:37:49;;;;;;;1.48;1.35;;;13.70;99.90;;;;;;7393256;19;20122;-83
2023/09/26 04:40:18;;;;;;;1.92;1.45;;;13.90;99.90;;;;;;7393305;19;20624;-84
2023/09/26 04:42:48;;;;;;;2.03;1.30;;;14.10;99.90;;;;;;7393908;19;20135;-84
2023/09/26 04:45:15;;;;;;;1.42;1.33;;;14.00;99.90;;;;;;7393053;19;20150;-84
2023/09/26 04:47:41;;;;;;;1.30;1.17;;;13.80;99.90;;;;;;7391840;19;20138;-85
2023/09/26 04:50:08;;;;;;;1.67;1.30;;;13.60;99.90;;;;;;7393226;19;20139;-85
2023/09/26 04:52:34;;;;;;;1.83;1.40;;;13.50;99.90;;;;;;7392114;19;20591;-85
2023/09/26 04:55:00;;;;;;;1.25;1.10;;;13.50;99.90;;;;;;7390698;19;20127;-85
2023/09/26 04:57:26;;;;;;;1.52;1.20;;;13.70;99.90;;;;;;7391222;19;20552;-85
2023/09/26 04:59:52;;;;;;;1.35;1.25;;;13.70;99.90;;;;;;7393360;19;20127;-85
2023/09/26 05:02:18;;;;;;;2.08;1.77;;;13.50;99.90;;;;;;7397546;19;20143;-85
2023/09/26 05:04:48;;;;;;;2.47;1.70;;;13.50;99.90;;;;;;7398627;19;20670;-85
2023/09/26 05:07:14;;;;;;;1.65;1.55;;;13.80;99.90;;;;;;7397880;19;20146;-84
2023/09/26 05:09:40;;;;;;;2.70;2.00;;;14.00;99.90;;;;;;7396778;19;20443;-85
2023/09/26 05:12:06;;;;;;;2.53;1.50;;;14.10;99.90;;;;;;7399382;19;20142;-85
2023/09/26 05:14:32;;;;;;;1.52;1.40;;;14.10;99.90;;;;;;7397769;19;20779;-85
2023/09/26 05:16:58;;;;;;;1.77;1.30;;;14.50;99.90;;;;;;7399288;19;20627;-85
2023/09/26 05:19:23;;;;;;;2.05;1.65;;;14.60;99.90;;;;;;7399360;19;20591;-85
2023/09/26 05:21:49;;;;;;;1.58;1.38;;;14.70;99.90;;;;;;7398383;19;20270;-86
2023/09/26 05:24:15;;;;;;;1.70;1.60;;;14.70;99.90;;;;;;7396859;19;20142;-86
2023/09/26 05:26:41;;;;;;;2.00;1.60;;;14.70;99.90;;;;;;7399979;19;20130;-85
2023/09/26 05:29:07;;;;;;;3.67;2.00;;;14.70;99.90;;;;;;7395869;19;20160;-85
2023/09/26 05:31:33;;;;;;;1.92;1.73;;;14.80;99.90;;;;;;7394445;19;20190;-86
2023/09/26 05:33:59;;;;;;;2.03;1.73;;;14.50;99.90;;;;;;7398974;19;20167;-88
2023/09/26 05:36:25;;;;;;;2.65;2.08;;;14.50;99.90;;;;;;7398886;19;20130;-88
2023/09/26 05:38:51;;;;;;;2.10;1.90;;;14.10;99.90;;;;;;7399832;19;20599;-89
2023/09/26 05:41:17;;;;;;;2.25;1.60;;;13.70;99.90;;;;;;7397417;19;20139;-87
2023/09/26 05:43:43;;;;;;;1.95;1.80;;;13.80;99.90;;;;;;7399804;19;20158;-87
2023/09/26 05:46:09;;;;;;;2.38;1.65;;;14.20;99.90;;;;;;7398747;19;20155;-87
2023/09/26 05:48:36;;;;;;;1.90;1.70;;;14.30;99.90;;;;;;7397883;19;20576;-89
2023/09/26 05:51:03;;;;;;;2.13;1.85;;;14.30;99.90;;;;;;7399861;19;21437;-87
2023/09/26 05:53:29;;;;;;;2.30;1.63;;;14.30;99.90;;;;;;7398398;19;20210;-87
2023/09/26 05:55:56;;;;;;;2.22;1.75;;;14.30;99.90;;;;;;7397832;19;20169;-84
2023/09/26 05:58:22;;;;;;;2.25;1.60;;;14.50;99.90;;;;;;7398705;19;20134;-88
2023/09/26 06:00:48;;;;;;;2.90;1.88;;;14.40;99.90;;;;;;7396661;19;20152;-89
2023/09/26 06:03:14;;;;;;;2.00;1.80;;;14.40;99.90;;;;;;7398550;19;20153;-89
2023/09/26 06:05:42;;;;;;;1.60;1.38;;;14.20;99.90;;;;;;7395308;19;20600;-89
2023/09/26 06:08:07;;;;;;;2.25;1.80;;;14.20;99.90;;;;;;7397991;19;20149;-89
2023/09/26 06:10:33;;;;;;;1.70;1.42;;;14.40;99.90;;;;;;7396221;19;20600;-86
2023/09/26 06:12:59;;;;;;;2.10;1.70;;;14.50;99.90;;;;;;7399470;19;20506;-85
2023/09/26 06:15:25;;;;;;;1.83;1.48;;;14.40;99.90;;;;;;7397704;19;20157;-85
2023/09/26 06:17:59;;;;;;;1.58;1.48;;;14.50;99.90;;;;;;7394585;19;20495;-86
2023/09/26 06:20:35;;;;;;;1.80;1.40;;;14.50;99.90;;;;;;7396071;19;20156;-87
2023/09/26 06:23:01;;;;;;;2.08;1.88;;;14.30;99.90;;;;;;7398847;19;20138;-86
2023/09/26 06:25:26;;;;;;;1.58;1.40;;;14.00;99.90;;;;;;7395319;19;20509;-88
2023/09/26 06:27:55;;;;;;;1.38;1.27;;;13.80;99.90;;;;;;7394542;19;20135;-88
2023/09/26 06:30:21;;;;;;;1.70;1.60;;;13.80;99.90;;;;;;7396641;19;20463;-87
2023/09/26 06:32:47;;;;;;;1.75;1.48;;;13.80;99.90;;;;;;7395930;19;20150;-88
2023/09/26 06:35:13;;;;;;;1.40;1.25;;;13.80;99.90;;;;;;7403546;19;20170;-85
2023/09/26 06:37:39;;;;;;;2.63;1.70;;;13.60;99.90;;;;;;7401812;19;20163;-83
2023/09/26 06:40:06;;;;;;;1.27;1.17;;;13.50;99.90;;;;;;7396771;19;20206;-84
2023/09/26 06:42:32;;;;;;;1.90;1.63;;;13.50;99.90;;;;;;7396029;19;20645;-84
2023/09/26 06:44:58;;;;;;;1.65;1.55;;;13.50;99.90;;;;;;7396599;19;20439;-84
2023/09/26 06:47:25;;;;;;;3.17;1.52;;;13.70;99.90;;;;;;7395561;19;20157;-85
2023/09/26 06:49:52;;;;;;;2.53;1.73;;;14.10;99.90;;;;;;7396113;19;20131;-84
2023/09/26 06:52:18;;;;;;;1.70;1.58;;;14.40;99.90;;;;;;7404229;19;20138;-85
2023/09/26 06:54:44;;;;;;;2.30;1.67;;;14.60;99.90;;;;;;7400950;19;20141;-84
2023/09/26 06:57:10;;;;;;;2.10;1.88;;;14.70;99.90;;;;;;7398553;19;20138;-85
2023/09/26 06:59:36;;;;;;;1.77;1.60;;;14.50;99.90;;;;;;7396861;19;20490;-87
2023/09/26 07:02:02;;;;;;;1.80;1.60;;;14.30;99.90;;;;;;7396111;19;20142;-88
2023/09/26 07:04:29;;;;;;;1.60;1.50;;;13.90;99.90;;;;;;7400708;19;20127;-87
2023/09/26 07:06:55;;;;;;;1.67;1.38;;;14.00;99.90;;;;;;7399761;19;20487;-88
2023/09/26 07:09:23;;;;;;;1.67;1.10;;;14.10;99.90;;;;;;7394109;19;20139;-86
2023/09/26 07:11:48;;;;;;;2.00;1.80;;;14.40;99.90;;;;;;7398172;19;20215;-85
2023/09/26 07:14:15;;;;;;;1.95;1.77;;;14.70;99.90;;;;;;7395296;19;20143;-85
2023/09/26 07:16:41;;;;;;;3.03;1.98;;;14.90;99.90;;;;;;7396294;19;20142;-87
2023/09/26 07:19:07;;;;;;;2.05;1.75;;;15.10;99.90;;;;;;7396618;19;20771;-87
2023/09/26 07:21:32;;;;;;;2.40;1.63;;;14.90;99.90;;;;;;7396621;19;20139;-86
2023/09/26 07:23:59;;;;;;;1.83;1.60;;;15.00;99.90;;;;;;7395945;19;20571;-86
2023/09/26 07:26:26;;;;;;;1.45;1.35;;;14.90;99.90;;;;;;7396370;19;20147;-86
2023/09/26 07:28:51;;;;;;;1.80;1.40;;;15.00;99.90;;;;;;7394974;19;20134;-86
2023/09/26 07:31:18;;;;;;;2.10;1.48;;;15.00;99.90;;;;;;7395884;19;20146;-86
2023/09/26 07:33:45;;;;;;;1.98;1.67;;;15.10;99.90;;;;;;7397445;19;20136;-86
2023/09/26 07:36:11;;;;;;;2.00;1.80;;;15.10;99.90;;;;;;7394877;19;20142;-85
2023/09/26 07:38:39;;;;;;;3.30;2.28;;;15.10;99.90;;;;;;7396065;19;20279;-87
2023/09/26 07:41:04;;;;;;;2.75;2.17;;;15.20;99.90;;;;;;7395535;19;20153;-86
2023/09/26 07:43:32;;;;;;;3.13;2.15;;;15.20;99.90;;;;;;7396964;19;20502;-87
2023/09/26 07:46:11;;;;;;;2.33;1.88;;;15.20;99.90;;;;;;7396424;19;20149;-88
2023/09/26 07:48:40;;;;;;;2.35;1.95;;;15.30;99.90;;;;;;7392191;19;20153;-87
2023/09/26 07:51:08;;;;;;;1.77;1.60;;;15.20;99.90;;;;;;7397286;19;20542;-85
2023/09/26 07:53:34;;;;;;;1.40;1.30;;;15.30;99.90;;;;;;7399539;19;20126;-88
2023/09/26 07:56:00;;;;;;;1.67;1.40;;;15.50;99.90;;;;;;7395220;19;20147;-86
2023/09/26 07:58:26;;;;;;;2.20;2.00;;;15.50;99.90;;;;;;7396644;19;20167;-85
2023/09/26 08:00:58;;;;;;;2.00;1.42;;;15.60;99.90;;;;;;7393570;19;20134;-86
2023/09/26 08:03:24;;;;;;;2.65;1.88;;;15.60;99.90;;;;;;7392542;19;20134;-84
2023/09/26 08:05:58;;;;;;;3.25;2.22;;;15.80;99.90;;;;;;7391378;19;20145;-86
2023/09/26 08:08:24;;;;;;;3.78;2.65;;;15.80;99.90;;;;;;7391968;19;20154;-84
2023/09/26 08:10:50;;;;;;;3.70;2.58;;;15.80;99.90;;;;;;7398509;19;20147;-84
2023/09/26 08:13:16;;;;;;;2.92;2.30;;;15.80;99.90;;;;;;7396403;19;20623;-85
2023/09/26 08:15:41;;;;;;;2.67;1.77;;;16.00;99.90;;;;;;7391450;19;20146;-85
2023/09/26 08:18:07;;;;;;;1.70;1.60;;;15.90;99.90;;;;;;7394479;19;20152;-83
2023/09/26 08:20:33;;;;;;;3.17;1.73;;;16.00;99.90;;;;;;7397950;19;20150;-85
2023/09/26 08:22:59;;;;;;;2.38;1.95;;;16.00;99.90;;;;;;7397552;19;20152;-84
2023/09/26 08:25:25;;;;;;;2.35;1.70;;;16.10;99.90;;;;;;7393389;19;20147;-85
2023/09/26 08:27:51;;;;;;;2.30;1.50;;;16.10;99.90;;;;;;7394004;19;20157;-84
2023/09/26 08:30:17;;;;;;;1.67;1.50;;;16.20;99.90;;;;;;7392198;19;20560;-83
2023/09/26 08:32:43;;;;;;;2.75;2.08;;;16.40;99.90;;;;;;7392878;19;20130;-84
2023/09/26 08:35:10;;;;;;;2.15;1.67;;;16.50;99.90;;;;;;7393279;19;20131;-85
2023/09/26 08:37:40;;;;;;;1.88;1.60;;;16.60;99.90;;;;;;7401026;19;20130;-84
2023/09/26 08:40:13;;;;;;;1.60;1.50;;;16.80;99.90;;;;;;7405635;19;20127;-85
2023/09/26 08:42:49;;;;;;;2.22;1.70;;;17.00;99.90;;;;;;7400187;19;20151;-85
2023/09/26 08:45:15;;;;;;;2.00;1.77;;;17.10;99.90;;;;;;7398827;19;20150;-84
2023/09/26 08:47:43;;;;;;;2.03;1.60;;;17.30;99.90;;;;;;7397569;19;20139;-85
2023/09/26 08:50:10;;;;;;;1.75;1.65;;;17.40;99.90;;;;;;7399707;19;20237;-83
2023/09/26 08:52:36;;;;;;;1.52;1.40;;;17.30;99.90;;;;;;7400356;19;20134;-84
2023/09/26 08:55:03;;;;;;;2.67;1.65;;;17.50;99.90;;;;;;7397407;19;20149;-84
2023/09/26 08:57:31;;;;;;;1.67;1.58;;;17.60;99.90;;;;;;7398508;19;20158;-84
2023/09/26 09:00:01;;;;;;;1.90;1.58;;;17.70;99.90;;;;;;7399685;19;20131;-84
2023/09/26 09:02:31;;;;;;;2.00;1.48;;;17.90;99.90;;;;;;7401160;19;20147;-84
2023/09/26 09:04:56;;;;;;;1.90;1.65;;;17.90;99.90;;;;;;7400896;19;20629;-82
2023/09/26 09:07:23;;;;;;;1.35;1.25;;;17.90;99.90;;;;;;7399562;19;20229;-85
2023/09/26 09:10:07;;;;;;;4.22;1.80;;;18.10;99.90;;;;;;7397072;19;20151;-85
2023/09/26 09:12:37;;;;;;;2.40;1.85;;;18.30;99.90;;;;;;7398213;19;20135;-85
2023/09/26 09:15:24;;;;;;;1.40;1.25;;;18.40;99.90;;;;;;7400545;19;20153;-84
2023/09/26 09:17:51;;;;;;;2.63;1.75;;;18.50;99.90;;;;;;7397987;19;20166;-85
2023/09/26 09:20:32;;;;;;;1.50;1.40;;;18.40;99.90;;;;;;7397861;19;20145;-85
2023/09/26 09:23:03;;;;;;;2.65;1.55;;;18.40;99.90;;;;;;7397084;19;20168;-83
2023/09/26 09:25:34;;;;;;;1.45;1.33;;;18.40;99.90;;;;;;7399132;19;20214;-85
2023/09/26 09:28:01;;;;;;;2.00;1.80;;;18.50;99.90;;;;;;7398358;19;20135;-85
2023/09/26 09:30:28;;;;;;;1.70;1.55;;;18.60;99.90;;;;;;7397485;19;20151;-84
2023/09/26 09:32:55;;;;;;;1.88;1.42;;;18.70;99.90;;;;;;7399090;19;20138;-83
2023/09/26 09:35:22;;;;;;;2.13;1.70;;;18.70;99.90;;;;;;7398740;19;20138;-83
2023/09/26 09:37:50;;;;;;;2.00;1.52;;;18.80;99.90;;;;;;7397951;19;20138;-83
2023/09/26 09:40:19;;;;;;;1.25;1.15;;;18.90;99.90;;;;;;7398542;19;20153;-83
2023/09/26 09:42:49;;;;;;;1.75;1.30;;;18.90;99.90;;;;;;7397481;19;20149;-84
2023/09/26 09:45:18;;;;;;;1.63;1.25;;;19.00;99.90;;;;;;7397417;19;20149;-84
2023/09/26 09:47:48;;;;;;;2.50;1.77;;;19.00;99.90;;;;;;7397312;19;20262;-83
2023/09/26 09:50:15;;;;;;;2.60;1.73;;;19.00;99.90;;;;;;7396273;19;20169;-83
2023/09/26 09:52:44;;;;;;;2.67;2.00;;;19.10;99.90;;;;;;7398423;19;20815;-82
2023/09/26 09:55:19;;;;;;;1.85;1.58;;;19.10;99.90;;;;;;7400334;19;20143;-83
2023/09/26 09:57:48;;;;;;;1.48;1.38;;;19.20;99.90;;;;;;7405859;19;20134;-83
2023/09/26 10:00:14;;;;;;;1.55;1.40;;;19.30;99.90;;;;;;7398988;19;20134;-81
2023/09/26 10:02:40;;;;;;;1.67;1.33;;;19.40;99.90;;;;;;7396434;19;20254;-83
2023/09/26 10:05:12;;;;;;;2.25;1.42;;;19.40;99.90;;;;;;7392687;19;20186;-85
2023/09/26 10:07:43;;;;;;;2.15;1.60;;;19.50;99.90;;;;;;7397855;19;20162;-87
2023/09/26 10:10:11;;;;;;;1.58;1.38;;;19.50;99.90;;;;;;7397784;19;20142;-87
2023/09/26 10:12:41;;;;;;;1.48;1.38;;;19.50;99.90;;;;;;7398765;19;20138;-85
2023/09/26 10:15:11;;;;;;;1.70;1.40;;;19.70;99.90;;;;;;7397927;19;20162;-87
2023/09/26 10:17:41;;;;;;;2.28;1.30;;;19.80;99.90;;;;;;7404427;19;20177;-87
2023/09/26 10:20:11;;;;;;;1.70;1.55;;;19.80;99.90;;;;;;7398237;19;20155;-86
2023/09/26 10:22:41;;;;;;;1.23;1.13;;;20.00;99.90;;;;;;7395728;19;20171;-84
2023/09/26 10:25:08;;;;;;;1.55;1.45;;;20.00;99.90;;;;;;7399050;19;20142;-83
2023/09/26 10:27:34;;;;;;;1.40;1.30;;;20.10;99.90;;;;;;7396579;19;20206;-87
2023/09/26 10:30:03;;;;;;;1.58;1.38;;;20.20;99.90;;;;;;7396392;19;20167;-85
2023/09/26 10:32:35;;;;;;;2.05;1.80;;;20.20;99.90;;;;;;7396981;19;20595;-85
2023/09/26 10:35:13;;;;;;;1.42;1.20;;;20.30;99.90;;;;;;7395966;19;20158;-87
2023/09/26 10:37:40;;;;;;;1.67;1.15;;;20.40;99.90;;;;;;7398171;19;20143;-85
2023/09/26 10:40:14;;;;;;;1.23;1.13;;;20.50;99.90;;;;;;7396937;19;20135;-87
2023/09/26 10:42:45;;;;;;;1.60;1.50;;;20.50;99.90;;;;;;7395732;19;20790;-87
2023/09/26 10:45:11;;;;;;;1.42;1.15;;;20.50;99.90;;;;;;7400544;19;20203;-87
2023/09/26 10:47:39;;;;;;;2.22;1.40;;;20.60;99.90;;;;;;7395610;19;20146;-84
2023/09/26 10:50:13;;;;;;;1.52;0.95;;;20.70;99.90;;;;;;7396551;19;20150;-84
2023/09/26 10:52:49;;;;;;;4.28;2.03;;;20.80;99.90;;;;;;7394546;19;20468;-84
2023/09/26 10:55:22;;;;;;;1.20;1.00;;;20.80;99.90;;;;;;7399974;19;20528;-84
2023/09/26 10:57:51;;;;;;;1.55;0.88;;;20.90;99.90;;;;;;7398841;19;20134;-84
2023/09/26 11:00:18;;;;;;;1.48;1.25;;;20.90;99.90;;;;;;7402204;19;20147;-86
2023/09/26 11:02:46;;;;;;;1.30;1.10;;;20.90;99.90;;;;;;7401866;19;20154;-87
2023/09/26 11:05:14;;;;;;;1.23;0.95;;;21.00;99.90;;;;;;7395274;19;20182;-90
2023/09/26 11:07:42;;;;;;;1.00;0.90;;;21.10;99.90;;;;;;7398365;19;20138;-86
2023/09/26 11:10:15;;;;;;;1.00;0.95;;;21.20;99.90;;;;;;7395639;19;20146;-85
2023/09/26 11:12:43;;;;;;;1.77;1.23;;;21.10;99.90;;;;;;7394970;19;20152;-87
2023/09/26 11:15:09;;;;;;;1.65;1.13;;;21.10;99.90;;;;;;7395250;19;20147;-85
2023/09/26 11:17:36;;;;;;;1.33;1.02;;;21.30;99.90;;;;;;7396268;19;20155;-84
2023/09/26 11:20:05;;;;;;;1.65;1.10;;;21.30;99.90;;;;;;7393957;19;20149;-84
2023/09/26 11:22:43;;;;;;;1.73;1.20;;;21.30;99.90;;;;;;7395067;19;20157;-84
2023/09/26 11:25:10;;;;;;;1.58;0.70;;;21.50;99.90;;;;;;7396182;19;20261;-84
2023/09/26 11:27:41;;;;;;;0.95;0.85;;;21.60;99.90;;;;;;7395376;19;20135;-82
2023/09/26 11:30:09;;;;;;;1.10;0.80;;;21.70;99.90;;;;;;7395945;19;20162;-84
2023/09/26 11:32:35;;;;;;;1.17;1.00;;;21.80;99.90;;;;;;7394201;19;20147;-84
2023/09/26 11:35:03;;;;;;;0.60;0.60;;;21.90;99.90;;;;;;7392887;19;20146;-88
2023/09/26 11:37:33;;;;;;;0.60;0.60;;;21.90;99.90;;;;;;7394758;19;20150;-85
2023/09/26 11:39:59;;;;;;;1.05;0.77;;;21.90;99.90;;;;;;7395574;19;20874;-87
2023/09/26 11:42:24;;;;;;;0.85;0.85;;;21.90;99.90;;;;;;7395362;19;20146;-85
2023/09/26 11:44:55;;;;;;;0.93;0.63;;;22.00;99.90;;;;;;7393699;19;20138;-83
2023/09/26 11:47:24;;;;;;;1.30;0.88;;;22.10;99.90;;;;;;7392217;19;20142;-83
2023/09/26 11:49:51;;;;;;;1.02;0.80;;;22.20;99.90;;;;;;7390234;19;20594;-82
2023/09/26 11:52:18;;;;;;;2.10;0.80;;;22.30;99.90;;;;;;7392399;19;20627;-84
2023/09/26 11:54:44;;;;;;;0.77;0.77;;;22.30;99.90;;;;;;7392576;19;20157;-85
2023/09/26 11:57:13;;;;;;;3.38;0.90;;;22.40;99.90;;;;;;7395605;19;20135;-85
2023/09/26 11:59:40;;;;;;;0.57;0.57;;;22.40;99.90;;;;;;7393606;19;20131;-84
2023/09/26 12:02:10;;;;;;;0.63;0.60;;;22.60;99.90;;;;;;7394459;19;20153;-84
2023/09/26 12:04:36;;;;;;;1.10;0.70;;;22.70;99.90;;;;;;7392725;19;20141;-83
2023/09/26 12:07:03;;;;;;;0.50;0.50;;;22.80;99.90;;;;;;7393037;19;20147;-87
2023/09/26 12:09:29;;;;;;;0.52;0.52;;;22.90;99.90;;;;;;7389145;19;20138;-83
2023/09/26 12:11:56;;;;;;;0.88;0.82;;;23.00;99.90;;;;;;7392231;19;20155;-83
2023/09/26 12:14:22;;;;;;;0.82;0.77;;;23.00;99.90;;;;;;7392062;19;20146;-82
2023/09/26 12:16:51;;;;;;;1.30;0.73;;;23.10;99.90;;;;;;7393256;19;20179;-84
2023/09/26 12:19:22;;;;;;;0.60;0.50;;;23.10;99.90;;;;;;7391630;19;20142;-82
2023/09/26 12:21:48;;;;;;;0.90;0.60;;;23.00;99.90;;;;;;7392399;19;20475;-83
2023/09/26 12:24:15;;;;;;;0.50;0.50;;;22.90;99.90;;;;;;7392313;19;20487;-82
2023/09/26 12:26:41;;;;;;;0.50;0.50;;;22.90;99.90;;;;;;7391448;19;20154;-84
2023/09/26 12:29:09;;;;;;;0.57;0.57;;;22.90;99.90;;;;;;7389418;19;20854;-81
2023/09/26 12:31:35;;;;;;;0.82;0.55;;;22.80;99.90;;;;;;7391268;19;20154;-84
2023/09/26 12:34:02;;;;;;;1.20;0.50;;;22.90;99.90;;;;;;7390992;19;20132;-82
2023/09/26 12:36:29;;;;;;;0.80;0.70;;;23.00;99.90;;;;;;7390634;19;20946;-83
2023/09/26 12:38:55;;;;;;;0.50;0.50;;;23.20;99.90;;;;;;7391733;19;20575;-81
2023/09/26 12:41:20;;;;;;;0.60;0.60;;;23.30;99.90;;;;;;7392022;19;20126;-82
2023/09/26 12:43:46;;;;;;;0.60;0.50;;;23.30;99.90;;;;;;7389357;19;20138;-80
2023/09/26 12:46:12;;;;;;;0.90;0.52;;;23.20;99.90;;;;;;7391407;19;20441;-81
2023/09/26 12:48:38;;;;;;;0.90;0.70;;;23.30;99.90;;;;;;7388955;19;20165;-80